VIR28K EGCC-KJFK
Flight info
| Callsign | VIR28K |
|---|---|
| Flight time | N/A |
| Altitude | 38000 |
| Route | EKLAD UY53 WAL L10 PENIL M144 BAGSO DCT DOGAL/M085F380 DCT 55N020W 55N030W 55N040W 54N050W DCT NEEKO/N0495F380 N622E TAFFY DCT ENE PARCH4 |
| Aircraft | A35K/H-SDE2E3GHIJ3J4J5LM1ORWXY/LB1D1 |
Departure
| Time | 2026-05-04 17:22 |
|---|---|
| Airport | Manchester Airport (EGCC) |
Arrival
| Time | N/A |
|---|---|
| Airport | John F. Kennedy International Airport (KJFK) |
| Time | Latitude | Longitude | Altitude | Speed | Heading |
|---|---|---|---|---|---|
| 2026-05-04 16:39 | 53.36710 | -2.28837 | 261 ft | 0 kts | 317° |
| 2026-05-04 17:08 | 53.36706 | -2.28831 | 261 ft | 4 kts | 316° |
| 2026-05-04 17:08 | 53.36688 | -2.28798 | 261 ft | 3 kts | 315° |
| 2026-05-04 17:09 | 53.36666 | -2.28763 | 261 ft | 3 kts | 315° |
| 2026-05-04 17:09 | 53.36656 | -2.28744 | 261 ft | 4 kts | 240° |
| 2026-05-04 17:09 | 53.36666 | -2.28722 | 261 ft | 3 kts | 225° |
| 2026-05-04 17:10 | 53.36712 | -2.28685 | 261 ft | 3 kts | 197° |
| 2026-05-04 17:10 | 53.36727 | -2.28674 | 261 ft | 0 kts | 224° |
| 2026-05-04 17:13 | 53.36683 | -2.28737 | 261 ft | 10 kts | 210° |
| 2026-05-04 17:14 | 53.36422 | -2.28502 | 261 ft | 18 kts | 148° |
| 2026-05-04 17:14 | 53.36312 | -2.28411 | 261 ft | 18 kts | 144° |
| 2026-05-04 17:14 | 53.36114 | -2.28081 | 261 ft | 20 kts | 137° |
| 2026-05-04 17:15 | 53.36020 | -2.27944 | 261 ft | 18 kts | 139° |
| 2026-05-04 17:15 | 53.35815 | -2.27734 | 258 ft | 15 kts | 133° |
| 2026-05-04 17:16 | 53.35666 | -2.27582 | 252 ft | 10 kts | 144° |
| 2026-05-04 17:16 | 53.35548 | -2.27424 | 252 ft | 7 kts | 141° |
| 2026-05-04 17:17 | 53.35502 | -2.27363 | 254 ft | 10 kts | 141° |
| 2026-05-04 17:17 | 53.35311 | -2.27199 | 248 ft | 15 kts | 186° |
| 2026-05-04 17:18 | 53.35217 | -2.27226 | 240 ft | 9 kts | 191° |
| 2026-05-04 17:18 | 53.35079 | -2.27273 | 236 ft | 17 kts | 191° |
| 2026-05-04 17:19 | 53.35008 | -2.27328 | 236 ft | 0 kts | 227° |
| 2026-05-04 17:21 | 53.34999 | -2.27345 | 231 ft | 6 kts | 228° |
| 2026-05-04 17:21 | 53.34350 | -2.28684 | 230 ft | 147 kts | 231° |
| 2026-05-04 17:22 | 53.33587 | -2.30247 | 465 ft | 187 kts | 231° |
| 2026-05-04 17:22 | 53.32741 | -2.31943 | 1337 ft | 194 kts | 231° |
| 2026-05-04 17:23 | 53.31852 | -2.38539 | 3880 ft | 222 kts | 289° |
| 2026-05-04 17:23 | 53.32389 | -2.41064 | 4374 ft | 244 kts | 282° |
| 2026-05-04 17:23 | 53.31873 | -2.46943 | 4986 ft | 261 kts | 255° |
| 2026-05-04 17:24 | 53.31373 | -2.49871 | 4998 ft | 262 kts | 255° |
| 2026-05-04 17:24 | 53.29782 | -2.58698 | 6191 ft | 266 kts | 253° |
| 2026-05-04 17:25 | 53.29247 | -2.61623 | 6662 ft | 268 kts | 253° |
| 2026-05-04 17:25 | 53.28152 | -2.67586 | 7609 ft | 270 kts | 253° |
| 2026-05-04 17:26 | 53.27043 | -2.73603 | 8580 ft | 272 kts | 253° |
| 2026-05-04 17:26 | 53.26071 | -2.82925 | 10075 ft | 278 kts | 284° |
| 2026-05-04 17:27 | 53.28022 | -2.89003 | 11035 ft | 321 kts | 304° |
| 2026-05-04 17:27 | 53.30836 | -2.95098 | 12240 ft | 339 kts | 308° |
| 2026-05-04 17:28 | 53.33793 | -3.01369 | 13562 ft | 347 kts | 307° |
| 2026-05-04 17:29 | 53.38218 | -3.11188 | 15415 ft | 358 kts | 306° |
| 2026-05-04 17:29 | 53.42692 | -3.21486 | 17349 ft | 370 kts | 305° |
| 2026-05-04 17:30 | 53.47218 | -3.32222 | 19256 ft | 383 kts | 306° |
| 2026-05-04 17:31 | 53.49800 | -3.40163 | 20492 ft | 394 kts | 290° |
| 2026-05-04 17:31 | 53.52030 | -3.53712 | 22447 ft | 408 kts | 284° |
| 2026-05-04 17:32 | 53.53309 | -3.63106 | 23791 ft | 416 kts | 284° |
| 2026-05-04 17:33 | 53.55322 | -3.77581 | 25590 ft | 430 kts | 285° |
| 2026-05-04 17:33 | 53.56015 | -3.82492 | 26226 ft | 434 kts | 285° |
| 2026-05-04 17:34 | 53.58131 | -3.97495 | 27909 ft | 449 kts | 285° |
| 2026-05-04 17:34 | 53.58852 | -4.02640 | 28097 ft | 453 kts | 285° |
| 2026-05-04 17:35 | 53.61010 | -4.18207 | 29821 ft | 457 kts | 285° |
| 2026-05-04 17:35 | 53.62442 | -4.28635 | 31057 ft | 457 kts | 285° |
| 2026-05-04 17:35 | 53.63154 | -4.33840 | 31652 ft | 456 kts | 285° |
| 2026-05-04 17:36 | 53.63863 | -4.39053 | 32269 ft | 455 kts | 285° |
| 2026-05-04 17:36 | 53.64498 | -4.44263 | 32907 ft | 454 kts | 280° |
| 2026-05-04 17:36 | 53.64822 | -4.49485 | 33548 ft | 452 kts | 277° |
| 2026-05-04 17:36 | 53.65058 | -4.54741 | 34191 ft | 448 kts | 276° |
| 2026-05-04 17:37 | 53.65254 | -4.59966 | 34771 ft | 444 kts | 275° |
| 2026-05-04 17:37 | 53.65427 | -4.65130 | 35352 ft | 439 kts | 274° |
| 2026-05-04 17:37 | 53.65589 | -4.70229 | 35932 ft | 433 kts | 274° |
| 2026-05-04 17:37 | 53.65749 | -4.75296 | 36557 ft | 426 kts | 274° |
| 2026-05-04 17:38 | 53.65905 | -4.80222 | 37198 ft | 418 kts | 274° |
| 2026-05-04 17:38 | 53.66060 | -4.85068 | 37782 ft | 411 kts | 275° |
| 2026-05-04 17:38 | 53.66220 | -4.89879 | 38064 ft | 412 kts | 275° |
| 2026-05-04 17:39 | 53.66697 | -5.04672 | 38076 ft | 432 kts | 274° |
| 2026-05-04 17:39 | 53.67017 | -5.14971 | 38076 ft | 447 kts | 274° |
| 2026-05-04 17:40 | 53.67338 | -5.25631 | 38078 ft | 462 kts | 274° |
| 2026-05-04 17:40 | 53.67646 | -5.36576 | 38079 ft | 476 kts | 274° |
| 2026-05-04 17:41 | 53.67953 | -5.47883 | 38074 ft | 484 kts | 274° |
| 2026-05-04 17:41 | 53.68458 | -5.59195 | 38075 ft | 483 kts | 278° |
| 2026-05-04 17:42 | 53.69365 | -5.70404 | 38073 ft | 482 kts | 279° |
| 2026-05-04 17:42 | 53.70270 | -5.81616 | 38072 ft | 482 kts | 279° |
| 2026-05-04 17:43 | 53.71097 | -5.92853 | 38075 ft | 482 kts | 278° |
| 2026-05-04 17:43 | 53.71880 | -6.04100 | 38076 ft | 482 kts | 278° |
| 2026-05-04 17:44 | 53.72647 | -6.15351 | 38074 ft | 482 kts | 278° |
| 2026-05-04 17:44 | 53.73402 | -6.26542 | 38061 ft | 482 kts | 278° |
| 2026-05-04 17:45 | 53.74151 | -6.37782 | 38068 ft | 481 kts | 278° |
| 2026-05-04 17:45 | 53.74890 | -6.49008 | 38071 ft | 480 kts | 278° |
| 2026-05-04 17:46 | 53.75618 | -6.60237 | 38070 ft | 480 kts | 278° |
| 2026-05-04 17:46 | 53.76335 | -6.71478 | 38075 ft | 480 kts | 277° |
| 2026-05-04 17:47 | 53.77042 | -6.82713 | 38072 ft | 480 kts | 277° |
| 2026-05-04 17:47 | 53.77736 | -6.93929 | 38074 ft | 480 kts | 277° |
| 2026-05-04 17:48 | 53.78420 | -7.05145 | 38073 ft | 479 kts | 277° |
| 2026-05-04 17:48 | 53.79093 | -7.16353 | 38074 ft | 477 kts | 277° |
| 2026-05-04 17:49 | 53.79747 | -7.27428 | 38074 ft | 475 kts | 277° |
| 2026-05-04 17:49 | 53.80395 | -7.38568 | 38077 ft | 475 kts | 277° |
| 2026-05-04 17:50 | 53.81031 | -7.49685 | 38081 ft | 474 kts | 277° |
| 2026-05-04 17:50 | 53.81656 | -7.60797 | 38083 ft | 474 kts | 277° |
| 2026-05-04 17:51 | 53.82272 | -7.71936 | 38086 ft | 474 kts | 276° |
| 2026-05-04 17:51 | 53.82872 | -7.82973 | 38088 ft | 474 kts | 276° |
| 2026-05-04 17:52 | 53.83467 | -7.94091 | 38087 ft | 474 kts | 276° |
| 2026-05-04 17:52 | 53.84050 | -8.05214 | 38093 ft | 474 kts | 276° |
| 2026-05-04 17:53 | 53.84527 | -8.14453 | 38092 ft | 473 kts | 276° |
| 2026-05-04 17:53 | 53.85092 | -8.25560 | 38098 ft | 473 kts | 276° |
| 2026-05-04 17:54 | 53.85646 | -8.36676 | 38094 ft | 473 kts | 276° |
| 2026-05-04 17:54 | 53.86189 | -8.47789 | 38096 ft | 473 kts | 276° |
| 2026-05-04 17:55 | 53.86722 | -8.58891 | 38100 ft | 473 kts | 276° |
| 2026-05-04 17:55 | 53.87244 | -8.69991 | 38102 ft | 473 kts | 275° |
| 2026-05-04 17:56 | 53.87756 | -8.81097 | 38108 ft | 472 kts | 276° |
| 2026-05-04 17:56 | 53.88257 | -8.92191 | 38105 ft | 472 kts | 275° |
| 2026-05-04 17:57 | 53.88748 | -9.03293 | 38100 ft | 471 kts | 275° |
| 2026-05-04 17:57 | 53.89226 | -9.14342 | 38111 ft | 470 kts | 275° |
| 2026-05-04 17:58 | 53.89695 | -9.25398 | 38112 ft | 469 kts | 275° |
| 2026-05-04 17:58 | 53.90150 | -9.36385 | 38108 ft | 466 kts | 275° |
| 2026-05-04 17:59 | 53.90592 | -9.47286 | 38117 ft | 467 kts | 275° |
| 2026-05-04 18:00 | 53.91239 | -9.63713 | 38125 ft | 465 kts | 274° |
| 2026-05-04 18:00 | 53.91657 | -9.74654 | 38123 ft | 465 kts | 274° |
| 2026-05-04 18:01 | 53.92065 | -9.85589 | 38124 ft | 464 kts | 274° |
| 2026-05-04 18:01 | 53.92464 | -9.96534 | 38141 ft | 465 kts | 274° |
| 2026-05-04 18:02 | 53.93043 | -10.12962 | 38134 ft | 465 kts | 274° |
| 2026-05-04 18:02 | 53.93417 | -10.23916 | 38135 ft | 465 kts | 274° |
| 2026-05-04 18:03 | 53.93781 | -10.34867 | 38135 ft | 464 kts | 274° |
| 2026-05-04 18:03 | 53.94132 | -10.45732 | 38138 ft | 464 kts | 274° |
| 2026-05-04 18:04 | 53.94476 | -10.56705 | 38146 ft | 464 kts | 273° |
| 2026-05-04 18:05 | 53.94972 | -10.73132 | 38138 ft | 464 kts | 273° |
| 2026-05-04 18:05 | 53.95289 | -10.84013 | 38137 ft | 463 kts | 273° |
| 2026-05-04 18:06 | 53.95747 | -11.00401 | 38152 ft | 463 kts | 273° |
| 2026-05-04 18:06 | 53.96040 | -11.11332 | 38141 ft | 463 kts | 273° |
| 2026-05-04 18:07 | 53.96323 | -11.22253 | 38143 ft | 463 kts | 273° |
| 2026-05-04 18:07 | 53.96597 | -11.33187 | 38147 ft | 463 kts | 272° |
| 2026-05-04 18:08 | 53.96859 | -11.44079 | 38145 ft | 460 kts | 272° |
| 2026-05-04 18:08 | 53.97111 | -11.54949 | 38156 ft | 460 kts | 272° |
| 2026-05-04 18:09 | 53.97583 | -11.76578 | 38145 ft | 459 kts | 272° |
| 2026-05-04 18:10 | 53.97805 | -11.87403 | 38146 ft | 459 kts | 272° |
| 2026-05-04 18:10 | 53.98017 | -11.98237 | 38153 ft | 458 kts | 272° |
| 2026-05-04 18:11 | 53.98219 | -12.09067 | 38160 ft | 458 kts | 272° |
| 2026-05-04 18:11 | 53.98412 | -12.19897 | 38164 ft | 458 kts | 272° |
| 2026-05-04 18:12 | 53.98595 | -12.30731 | 38166 ft | 458 kts | 272° |
| 2026-05-04 18:12 | 53.98767 | -12.41485 | 38162 ft | 458 kts | 272° |
| 2026-05-04 18:13 | 53.98930 | -12.52304 | 38167 ft | 458 kts | 272° |
| 2026-05-04 18:14 | 53.99156 | -12.68537 | 38164 ft | 458 kts | 271° |
| 2026-05-04 18:14 | 53.99295 | -12.79358 | 38166 ft | 458 kts | 271° |
| 2026-05-04 18:15 | 53.99543 | -13.00954 | 38168 ft | 458 kts | 271° |
| 2026-05-04 18:16 | 53.99653 | -13.11778 | 38169 ft | 458 kts | 271° |
| 2026-05-04 18:16 | 53.99753 | -13.22597 | 38172 ft | 458 kts | 271° |
| 2026-05-04 18:17 | 53.99885 | -13.38842 | 38177 ft | 458 kts | 271° |
| 2026-05-04 18:18 | 53.99995 | -13.55074 | 38175 ft | 458 kts | 271° |
| 2026-05-04 18:18 | 54.00056 | -13.65907 | 38175 ft | 458 kts | 271° |
| 2026-05-04 18:19 | 54.00130 | -13.82140 | 38178 ft | 458 kts | 271° |
| 2026-05-04 18:19 | 54.00166 | -13.92898 | 38179 ft | 458 kts | 271° |
| 2026-05-04 18:20 | 54.00193 | -14.03740 | 38182 ft | 458 kts | 271° |
| 2026-05-04 18:20 | 54.00211 | -14.14569 | 38183 ft | 458 kts | 271° |
| 2026-05-04 18:21 | 54.00219 | -14.25406 | 38186 ft | 458 kts | 270° |
| 2026-05-04 18:21 | 54.00217 | -14.36234 | 38183 ft | 458 kts | 270° |
| 2026-05-04 18:22 | 54.00205 | -14.47072 | 38192 ft | 458 kts | 270° |
| 2026-05-04 18:22 | 54.00183 | -14.57832 | 38193 ft | 458 kts | 270° |
| 2026-05-04 18:23 | 54.00152 | -14.68658 | 38199 ft | 458 kts | 270° |
| 2026-05-04 18:23 | 54.00111 | -14.79476 | 38199 ft | 458 kts | 270° |
| 2026-05-04 18:24 | 54.00061 | -14.90301 | 38196 ft | 458 kts | 270° |
| 2026-05-04 18:24 | 54.00585 | -15.01066 | 38203 ft | 456 kts | 283° |
| 2026-05-04 18:25 | 54.02493 | -15.11272 | 38200 ft | 456 kts | 290° |
| 2026-05-04 18:25 | 54.04750 | -15.21368 | 38208 ft | 456 kts | 291° |
| 2026-05-04 18:26 | 54.07041 | -15.31442 | 38203 ft | 456 kts | 291° |
| 2026-05-04 18:26 | 54.09304 | -15.41533 | 38208 ft | 456 kts | 290° |
| 2026-05-04 18:27 | 54.11540 | -15.51635 | 38207 ft | 456 kts | 290° |
| 2026-05-04 18:27 | 54.13764 | -15.61756 | 38208 ft | 455 kts | 290° |
| 2026-05-04 18:28 | 54.15976 | -15.71870 | 38213 ft | 455 kts | 290° |
| 2026-05-04 18:28 | 54.18179 | -15.81990 | 38215 ft | 455 kts | 290° |
| 2026-05-04 18:29 | 54.20364 | -15.92075 | 38216 ft | 455 kts | 290° |
| 2026-05-04 18:29 | 54.22549 | -16.02209 | 38216 ft | 455 kts | 290° |
| 2026-05-04 18:30 | 54.25813 | -16.17438 | 38215 ft | 454 kts | 290° |
| 2026-05-04 18:31 | 54.27974 | -16.27586 | 38222 ft | 454 kts | 290° |
| 2026-05-04 18:31 | 54.30129 | -16.37755 | 38222 ft | 454 kts | 290° |
| 2026-05-04 18:32 | 54.32252 | -16.47825 | 38225 ft | 454 kts | 290° |
| 2026-05-04 18:32 | 54.34389 | -16.58012 | 38222 ft | 454 kts | 290° |
| 2026-05-04 18:33 | 54.36516 | -16.68204 | 38228 ft | 454 kts | 290° |
| 2026-05-04 18:33 | 54.38635 | -16.78406 | 38227 ft | 453 kts | 290° |
| 2026-05-04 18:34 | 54.40743 | -16.88607 | 38227 ft | 453 kts | 290° |
| 2026-05-04 18:34 | 54.42842 | -16.98820 | 38229 ft | 453 kts | 289° |
| 2026-05-04 18:35 | 54.44929 | -17.09028 | 38230 ft | 453 kts | 289° |
| 2026-05-04 18:35 | 54.46998 | -17.19195 | 38231 ft | 453 kts | 289° |
| 2026-05-04 18:36 | 54.49082 | -17.29488 | 38233 ft | 453 kts | 289° |
| 2026-05-04 18:36 | 54.51131 | -17.39664 | 38233 ft | 453 kts | 289° |
| 2026-05-04 18:37 | 54.53184 | -17.49915 | 38243 ft | 453 kts | 289° |
| 2026-05-04 18:37 | 54.55227 | -17.60168 | 38242 ft | 452 kts | 289° |
| 2026-05-04 18:38 | 54.57260 | -17.70425 | 38243 ft | 452 kts | 289° |
| 2026-05-04 18:38 | 54.59284 | -17.80689 | 38243 ft | 452 kts | 289° |
| 2026-05-04 18:39 | 54.61300 | -17.90965 | 38245 ft | 452 kts | 289° |
| 2026-05-04 18:39 | 54.63305 | -18.01242 | 38247 ft | 452 kts | 289° |
| 2026-05-04 18:40 | 54.65290 | -18.11471 | 38244 ft | 452 kts | 289° |
| 2026-05-04 18:40 | 54.67278 | -18.21768 | 38250 ft | 452 kts | 289° |
| 2026-05-04 18:41 | 54.69261 | -18.32095 | 38250 ft | 452 kts | 288° |
| 2026-05-04 18:41 | 54.71232 | -18.42416 | 38252 ft | 452 kts | 288° |
| 2026-05-04 18:42 | 54.72863 | -18.51003 | 38257 ft | 452 kts | 288° |
| 2026-05-04 18:42 | 54.74821 | -18.61360 | 38257 ft | 452 kts | 288° |
| 2026-05-04 18:43 | 54.76767 | -18.71706 | 38257 ft | 452 kts | 288° |
| 2026-05-04 18:43 | 54.78706 | -18.82075 | 38265 ft | 452 kts | 288° |
| 2026-05-04 18:44 | 54.80639 | -18.92468 | 38259 ft | 453 kts | 288° |
| 2026-05-04 18:44 | 54.82561 | -19.02860 | 38264 ft | 453 kts | 288° |
| 2026-05-04 18:45 | 54.84461 | -19.13193 | 38263 ft | 452 kts | 288° |
| 2026-05-04 18:45 | 54.86366 | -19.23607 | 38264 ft | 452 kts | 288° |
| 2026-05-04 18:46 | 54.88262 | -19.34034 | 38267 ft | 452 kts | 288° |
| 2026-05-04 18:46 | 54.90145 | -19.44449 | 38266 ft | 452 kts | 287° |
| 2026-05-04 18:47 | 54.92021 | -19.54882 | 38268 ft | 452 kts | 287° |
| 2026-05-04 18:47 | 54.93890 | -19.65336 | 38269 ft | 452 kts | 287° |
| 2026-05-04 18:48 | 54.95737 | -19.75729 | 38273 ft | 452 kts | 287° |
| 2026-05-04 18:48 | 54.97585 | -19.86185 | 38275 ft | 452 kts | 287° |
| 2026-05-04 18:49 | 54.99397 | -19.96678 | 38275 ft | 452 kts | 284° |
| 2026-05-04 18:49 | 55.00314 | -20.07500 | 38274 ft | 452 kts | 276° |
| 2026-05-04 18:50 | 55.00795 | -20.18423 | 38277 ft | 452 kts | 275° |
| 2026-05-04 18:50 | 55.01199 | -20.29357 | 38281 ft | 452 kts | 274° |
| 2026-05-04 18:51 | 55.01599 | -20.40291 | 38287 ft | 452 kts | 274° |
| 2026-05-04 18:51 | 55.02000 | -20.51156 | 38288 ft | 452 kts | 274° |
| 2026-05-04 18:52 | 55.02398 | -20.62092 | 38288 ft | 452 kts | 274° |
| 2026-05-04 18:52 | 55.02788 | -20.73023 | 38287 ft | 452 kts | 274° |
| 2026-05-04 18:53 | 55.03166 | -20.83941 | 38289 ft | 451 kts | 274° |
| 2026-05-04 18:53 | 55.03534 | -20.94851 | 38289 ft | 451 kts | 274° |
| 2026-05-04 18:54 | 55.03892 | -21.05783 | 38286 ft | 451 kts | 274° |
| 2026-05-04 18:54 | 55.04241 | -21.16701 | 38292 ft | 451 kts | 274° |
| 2026-05-04 18:55 | 55.04579 | -21.27616 | 38299 ft | 451 kts | 274° |
| 2026-05-04 18:55 | 55.05067 | -21.43946 | 38296 ft | 451 kts | 274° |
| 2026-05-04 18:56 | 55.05382 | -21.54875 | 38300 ft | 451 kts | 274° |
| 2026-05-04 18:56 | 55.05686 | -21.65806 | 38300 ft | 451 kts | 274° |
| 2026-05-04 18:57 | 55.05981 | -21.76730 | 38306 ft | 451 kts | 274° |
| 2026-05-04 18:57 | 55.06266 | -21.87657 | 38300 ft | 451 kts | 273° |
| 2026-05-04 18:58 | 55.06539 | -21.98504 | 38306 ft | 451 kts | 273° |
| 2026-05-04 18:58 | 55.06805 | -22.09462 | 38306 ft | 451 kts | 273° |
| 2026-05-04 18:59 | 55.07061 | -22.20410 | 38317 ft | 451 kts | 273° |
| 2026-05-04 18:59 | 55.07307 | -22.31342 | 38311 ft | 451 kts | 273° |
| 2026-05-04 19:00 | 55.07543 | -22.42289 | 38314 ft | 451 kts | 273° |
| 2026-05-04 19:00 | 55.07768 | -22.53157 | 38313 ft | 451 kts | 273° |
| 2026-05-04 19:01 | 55.07985 | -22.64114 | 38311 ft | 451 kts | 272° |
| 2026-05-04 19:01 | 55.08191 | -22.75054 | 38311 ft | 451 kts | 272° |
| 2026-05-04 19:02 | 55.08388 | -22.86001 | 38311 ft | 451 kts | 272° |
| 2026-05-04 19:02 | 55.08575 | -22.96940 | 38314 ft | 451 kts | 272° |
| 2026-05-04 19:03 | 55.08752 | -23.07888 | 38314 ft | 451 kts | 272° |
| 2026-05-04 19:03 | 55.08920 | -23.18823 | 38317 ft | 451 kts | 272° |
| 2026-05-04 19:04 | 55.09077 | -23.29770 | 38317 ft | 451 kts | 272° |
| 2026-05-04 19:04 | 55.09225 | -23.40720 | 38317 ft | 451 kts | 272° |
| 2026-05-04 19:05 | 55.09362 | -23.51598 | 38320 ft | 451 kts | 272° |
| 2026-05-04 19:05 | 55.09490 | -23.62531 | 38316 ft | 451 kts | 272° |
| 2026-05-04 19:06 | 55.09608 | -23.73484 | 38322 ft | 451 kts | 272° |
| 2026-05-04 19:06 | 55.09717 | -23.84436 | 38322 ft | 451 kts | 271° |
| 2026-05-04 19:07 | 55.09816 | -23.95376 | 38330 ft | 451 kts | 271° |
| 2026-05-04 19:07 | 55.09905 | -24.06340 | 38325 ft | 451 kts | 271° |
| 2026-05-04 19:08 | 55.09984 | -24.17285 | 38328 ft | 451 kts | 271° |
| 2026-05-04 19:08 | 55.10053 | -24.28161 | 38322 ft | 451 kts | 271° |
| 2026-05-04 19:09 | 55.10112 | -24.39139 | 38333 ft | 451 kts | 271° |
| 2026-05-04 19:09 | 55.10162 | -24.50110 | 38333 ft | 451 kts | 271° |
| 2026-05-04 19:10 | 55.10202 | -24.61065 | 38330 ft | 451 kts | 271° |
| 2026-05-04 19:10 | 55.10232 | -24.71958 | 38336 ft | 451 kts | 271° |
| 2026-05-04 19:11 | 55.10252 | -24.82920 | 38338 ft | 451 kts | 271° |
| 2026-05-04 19:11 | 55.10262 | -24.93869 | 38338 ft | 451 kts | 271° |
| 2026-05-04 19:12 | 55.10260 | -25.10302 | 38335 ft | 451 kts | 270° |
| 2026-05-04 19:13 | 55.10246 | -25.21285 | 38341 ft | 451 kts | 270° |
| 2026-05-04 19:13 | 55.10221 | -25.32248 | 38341 ft | 451 kts | 270° |
| 2026-05-04 19:14 | 55.10188 | -25.43202 | 38342 ft | 451 kts | 270° |
| 2026-05-04 19:14 | 55.10144 | -25.54167 | 38343 ft | 451 kts | 270° |
| 2026-05-04 19:15 | 55.10091 | -25.65074 | 38349 ft | 451 kts | 270° |
| 2026-05-04 19:15 | 55.10027 | -25.76030 | 38349 ft | 451 kts | 270° |
| 2026-05-04 19:16 | 55.09954 | -25.86987 | 38350 ft | 451 kts | 270° |
| 2026-05-04 19:16 | 55.09871 | -25.97961 | 38349 ft | 451 kts | 270° |
| 2026-05-04 19:17 | 55.09778 | -26.08912 | 38346 ft | 451 kts | 270° |
| 2026-05-04 19:17 | 55.09676 | -26.19824 | 38347 ft | 452 kts | 270° |
| 2026-05-04 19:18 | 55.09563 | -26.30801 | 38349 ft | 452 kts | 270° |
| 2026-05-04 19:18 | 55.09441 | -26.41775 | 38352 ft | 452 kts | 270° |
| 2026-05-04 19:19 | 55.09309 | -26.52740 | 38353 ft | 452 kts | 269° |
| 2026-05-04 19:19 | 55.09166 | -26.63708 | 38354 ft | 452 kts | 269° |
| 2026-05-04 19:20 | 55.09014 | -26.74697 | 38354 ft | 452 kts | 269° |
| 2026-05-04 19:20 | 55.08853 | -26.85612 | 38360 ft | 452 kts | 269° |
| 2026-05-04 19:21 | 55.08681 | -26.96587 | 38360 ft | 452 kts | 269° |
| 2026-05-04 19:21 | 55.08500 | -27.07546 | 38363 ft | 452 kts | 269° |
| 2026-05-04 19:22 | 55.08308 | -27.18525 | 38363 ft | 452 kts | 269° |
| 2026-05-04 19:22 | 55.08106 | -27.29488 | 38354 ft | 452 kts | 269° |
| 2026-05-04 19:23 | 55.07895 | -27.40458 | 38369 ft | 452 kts | 269° |
| 2026-05-04 19:23 | 55.07674 | -27.51435 | 38365 ft | 453 kts | 269° |
| 2026-05-04 19:24 | 55.07443 | -27.62415 | 38365 ft | 453 kts | 269° |
| 2026-05-04 19:24 | 55.07203 | -27.73325 | 38365 ft | 453 kts | 269° |
| 2026-05-04 19:25 | 55.06952 | -27.84317 | 38368 ft | 453 kts | 269° |
| 2026-05-04 19:25 | 55.06690 | -27.95308 | 38369 ft | 453 kts | 269° |
| 2026-05-04 19:26 | 55.06419 | -28.06290 | 38371 ft | 453 kts | 269° |
| 2026-05-04 19:26 | 55.06138 | -28.17288 | 38370 ft | 453 kts | 269° |
| 2026-05-04 19:27 | 55.05847 | -28.28279 | 38374 ft | 453 kts | 268° |
| 2026-05-04 19:27 | 55.05546 | -28.39254 | 38373 ft | 453 kts | 268° |
| 2026-05-04 19:28 | 55.05236 | -28.50234 | 38374 ft | 453 kts | 268° |
| 2026-05-04 19:28 | 55.04917 | -28.61146 | 38380 ft | 453 kts | 268° |
| 2026-05-04 19:29 | 55.04587 | -28.72124 | 38380 ft | 454 kts | 268° |
| 2026-05-04 19:29 | 55.04246 | -28.83114 | 38379 ft | 454 kts | 268° |
| 2026-05-04 19:30 | 55.03895 | -28.94126 | 38380 ft | 454 kts | 268° |
| 2026-05-04 19:30 | 55.03534 | -29.05131 | 38381 ft | 454 kts | 268° |
| 2026-05-04 19:31 | 55.03163 | -29.16120 | 38381 ft | 454 kts | 268° |
| 2026-05-04 19:31 | 55.02847 | -29.25266 | 38382 ft | 454 kts | 268° |
| 2026-05-04 19:32 | 55.02458 | -29.36266 | 38383 ft | 454 kts | 268° |
| 2026-05-04 19:32 | 55.02059 | -29.47265 | 38387 ft | 454 kts | 268° |
| 2026-05-04 19:33 | 55.01650 | -29.58250 | 38383 ft | 454 kts | 268° |
| 2026-05-04 19:33 | 55.01231 | -29.69241 | 38368 ft | 454 kts | 268° |
| 2026-05-04 19:34 | 55.00805 | -29.80178 | 38387 ft | 454 kts | 268° |
| 2026-05-04 19:34 | 55.00366 | -29.91157 | 38387 ft | 455 kts | 268° |
| 2026-05-04 19:35 | 55.00153 | -30.02152 | 38393 ft | 453 kts | 274° |
| 2026-05-04 19:35 | 55.00509 | -30.13103 | 38390 ft | 453 kts | 275° |
| 2026-05-04 19:36 | 55.00950 | -30.24059 | 38390 ft | 453 kts | 275° |
| 2026-05-04 19:36 | 55.01390 | -30.35012 | 38384 ft | 453 kts | 275° |
| 2026-05-04 19:37 | 55.01807 | -30.45895 | 38395 ft | 453 kts | 275° |
| 2026-05-04 19:37 | 55.02212 | -30.56854 | 38392 ft | 453 kts | 275° |
| 2026-05-04 19:38 | 55.02605 | -30.67810 | 38392 ft | 453 kts | 275° |
| 2026-05-04 19:38 | 55.02986 | -30.78705 | 38395 ft | 453 kts | 275° |
| 2026-05-04 19:39 | 55.03360 | -30.89663 | 38401 ft | 453 kts | 275° |
| 2026-05-04 19:39 | 55.03725 | -31.00634 | 38383 ft | 453 kts | 275° |
| 2026-05-04 19:40 | 55.04081 | -31.11644 | 38398 ft | 453 kts | 275° |
| 2026-05-04 19:40 | 55.04417 | -31.22338 | 38398 ft | 453 kts | 275° |